createdAt,value
2022-08-02T00:05:16.959Z,2.55
2022-08-02T00:15:18.432Z,3.00
2022-08-02T00:25:19.990Z,3.17
2022-08-02T00:35:21.455Z,2.83
2022-08-02T00:46:01.913Z,2.78
2022-08-02T00:55:45.504Z,2.50
2022-08-02T01:06:02.168Z,2.30
2022-08-02T01:16:16.018Z,1.97
2022-08-02T01:26:39.180Z,2.97
2022-08-02T01:36:44.229Z,2.40
2022-08-02T01:46:46.673Z,2.20
2022-08-02T01:56:50.701Z,2.15
2022-08-02T02:06:52.872Z,2.05
2022-08-02T02:16:56.913Z,1.92
2022-08-02T02:27:00.712Z,2.35
2022-08-02T02:37:04.835Z,2.05
2022-08-02T02:47:09.042Z,2.97
2022-08-02T02:57:10.951Z,2.92
2022-08-02T03:07:12.763Z,2.80
2022-08-02T03:17:14.195Z,3.47
2022-08-02T03:27:15.668Z,3.50
2022-08-02T03:37:17.647Z,5.00
2022-08-02T03:47:19.868Z,3.78
2022-08-02T03:57:21.746Z,4.18
2022-08-02T04:08:33.919Z,3.97
2022-08-02T04:17:50.486Z,4.18
2022-08-02T04:28:17.454Z,4.00
2022-08-02T04:38:15.476Z,4.25
2022-08-02T04:48:17.188Z,4.43
2022-08-02T04:58:39.591Z,4.57
2022-08-02T05:08:39.985Z,5.18
2022-08-02T05:18:41.443Z,4.10
2022-08-02T05:28:43.725Z,4.03
2022-08-02T05:38:49.656Z,4.13
2022-08-02T05:48:51.604Z,3.58
2022-08-02T05:59:01.158Z,3.30
2022-08-02T06:09:08.683Z,3.65
2022-08-02T06:19:12.323Z,2.63
2022-08-02T06:29:14.679Z,2.70
2022-08-02T06:39:39.267Z,2.35
2022-08-02T06:49:52.486Z,3.13
2022-08-02T06:59:56.492Z,2.55
2022-08-02T07:10:01.402Z,1.95
2022-08-02T07:20:04.253Z,1.50
2022-08-02T07:30:06.593Z,1.88
2022-08-02T07:40:13.549Z,1.40
2022-08-02T07:50:18.426Z,1.73
2022-08-02T08:00:19.850Z,2.05
2022-08-02T08:10:21.549Z,1.60
2022-08-02T08:20:23.062Z,1.77
2022-08-02T08:30:24.654Z,1.83
2022-08-02T08:40:26.239Z,1.90
2022-08-02T08:50:30.886Z,3.97
2022-08-02T09:00:35.120Z,2.03
2022-08-02T09:10:41.825Z,1.85
2022-08-02T09:21:01.663Z,1.67
2022-08-02T09:31:11.820Z,1.80
2022-08-02T09:41:21.645Z,1.30
2022-08-02T09:51:25.765Z,1.53
2022-08-02T10:01:37.353Z,1.35
2022-08-02T10:11:39.990Z,1.45
2022-08-02T10:21:55.799Z,1.30
2022-08-02T10:32:11.223Z,1.40
2022-08-02T10:42:33.371Z,1.20
2022-08-02T10:52:34.827Z,1.10
2022-08-02T11:02:40.466Z,1.00
2022-08-02T11:13:06.664Z,1.10
2022-08-02T11:23:45.004Z,1.20
2022-08-02T11:33:50.165Z,1.20
2022-08-02T11:43:55.449Z,1.02
2022-08-02T11:53:56.858Z,1.48
2022-08-02T12:03:58.478Z,1.35
2022-08-02T12:14:00.855Z,1.10
2022-08-02T12:24:02.306Z,1.10
2022-08-02T12:34:11.909Z,1.15
2022-08-02T12:44:17.112Z,1.20
2022-08-02T12:54:31.144Z,1.55
2022-08-02T13:04:33.532Z,1.50
2022-08-02T13:14:42.018Z,1.40
2022-08-02T13:24:55.858Z,1.93
2022-08-02T13:34:58.897Z,1.48
2022-08-02T13:45:00.365Z,1.50
2022-08-02T13:55:14.469Z,1.98
2022-08-02T14:05:16.033Z,1.70
2022-08-02T14:15:18.776Z,1.48
2022-08-02T14:25:20.432Z,2.17
2022-08-02T14:35:21.851Z,6.65
2022-08-02T14:45:23.268Z,1.70
2022-08-02T14:55:24.667Z,1.88
2022-08-02T15:05:26.133Z,1.75
2022-08-02T15:15:27.584Z,1.67
2022-08-02T15:25:29.001Z,2.10
2022-08-02T15:35:30.578Z,2.15
2022-08-02T15:45:32.024Z,2.25
2022-08-02T15:55:40.067Z,4.85
2022-08-02T16:05:55.194Z,4.18
2022-08-02T16:15:57.201Z,1.98
2022-08-02T16:25:58.659Z,2.47
2022-08-02T16:36:00.267Z,2.10
2022-08-02T16:46:01.821Z,2.08
2022-08-02T16:56:03.760Z,2.25
2022-08-02T17:06:05.219Z,2.47
2022-08-02T17:16:21.026Z,2.10
2022-08-02T17:36:31.457Z,2.05
2022-08-02T17:46:32.906Z,2.00
2022-08-02T17:56:34.601Z,2.08
2022-08-02T18:06:36.178Z,2.67
2022-08-02T18:16:38.768Z,2.28
2022-08-02T18:26:43.516Z,2.67
2022-08-02T18:36:47.459Z,2.50
2022-08-02T18:46:49.278Z,2.50
2022-08-02T18:56:50.902Z,2.17
2022-08-02T19:06:52.380Z,2.00
2022-08-02T19:16:53.852Z,1.92
2022-08-02T19:26:55.301Z,2.72
2022-08-02T19:36:56.746Z,2.47
2022-08-02T19:46:58.807Z,2.72
2022-08-02T19:57:00.235Z,2.55
2022-08-02T20:07:01.639Z,2.58
2022-08-02T20:17:04.895Z,2.67
2022-08-02T20:27:07.077Z,3.33
2022-08-02T20:38:00.929Z,3.05
2022-08-02T20:47:39.429Z,3.30
2022-08-02T20:57:48.958Z,3.10
2022-08-02T21:18:05.872Z,3.90
2022-08-02T21:38:36.841Z,3.65
2022-08-02T21:48:38.312Z,4.20
2022-08-02T21:58:39.779Z,4.07
2022-08-02T22:08:41.268Z,4.35
2022-08-02T22:18:47.438Z,4.22
2022-08-02T22:28:59.517Z,4.90
2022-08-02T22:39:02.843Z,4.88
2022-08-02T22:49:04.359Z,4.80
2022-08-02T22:59:02.780Z,3.95
2022-08-02T23:09:17.241Z,5.30
2022-08-02T23:19:18.641Z,4.95
2022-08-02T23:29:20.062Z,5.40
2022-08-02T23:39:21.975Z,5.53
2022-08-02T23:49:24.074Z,5.85
2022-08-02T23:59:25.626Z,6.10
